Terminal Aerodrome Forecast
Issued by NWS

Home | Current Version | Previous Version | Text Only | Print | Product List | Glossary Off
Versions: 1 2 3 4 5 6 7 8 9 10 11 12 13 14 15

000
FTUS43 KMPX 261125
TAFRNH
TAF
KRNH 261125Z 2612/2712 22004KT P6SM BKN110
     FM261600 23009KT P6SM BKN110 BKN250
     FM270200 22003KT P6SM BKN100 BKN250=

USA.gov is the U.S. government's official web portal to all federal, state and local government web resources and services.